sensor_id;sensor_type;location;lat;lon;timestamp;temperature;humidity
7934;DHT22;4012;48.896;9.192;2024-03-23T00:52:40;11.50;99.90
7934;DHT22;4012;48.896;9.192;2024-03-23T00:55:06;11.50;99.90
7934;DHT22;4012;48.896;9.192;2024-03-23T00:57:33;11.50;99.90
7934;DHT22;4012;48.896;9.192;2024-03-23T00:59:58;11.50;99.90
7934;DHT22;4012;48.896;9.192;2024-03-23T01:02:24;11.40;99.90
7934;DHT22;4012;48.896;9.192;2024-03-23T01:04:49;11.40;99.90
7934;DHT22;4012;48.896;9.192;2024-03-23T01:07:15;11.40;99.90
7934;DHT22;4012;48.896;9.192;2024-03-23T01:09:40;11.30;99.90
7934;DHT22;4012;48.896;9.192;2024-03-23T01:12:06;11.30;99.90
7934;DHT22;4012;48.896;9.192;2024-03-23T01:14:32;11.20;99.90
7934;DHT22;4012;48.896;9.192;2024-03-23T01:16:58;11.20;99.90
7934;DHT22;4012;48.896;9.192;2024-03-23T01:19:23;11.30;99.90
7934;DHT22;4012;48.896;9.192;2024-03-23T01:21:49;11.40;99.90
7934;DHT22;4012;48.896;9.192;2024-03-23T01:24:15;11.50;99.90
7934;DHT22;4012;48.896;9.192;2024-03-23T01:26:40;11.60;99.90
7934;DHT22;4012;48.896;9.192;2024-03-23T01:29:06;11.60;99.90
7934;DHT22;4012;48.896;9.192;2024-03-23T01:31:32;11.60;99.90
7934;DHT22;4012;48.896;9.192;2024-03-23T01:33:57;11.60;99.90
7934;DHT22;4012;48.896;9.192;2024-03-23T01:36:24;11.70;99.90
7934;DHT22;4012;48.896;9.192;2024-03-23T01:38:50;11.70;99.90
7934;DHT22;4012;48.896;9.192;2024-03-23T01:41:16;11.80;99.90
7934;DHT22;4012;48.896;9.192;2024-03-23T01:43:41;11.70;99.90
7934;DHT22;4012;48.896;9.192;2024-03-23T01:46:07;11.60;99.90
7934;DHT22;4012;48.896;9.192;2024-03-23T01:48:32;11.60;99.90
7934;DHT22;4012;48.896;9.192;2024-03-23T01:50:58;11.50;99.90
7934;DHT22;4012;48.896;9.192;2024-03-23T01:53:25;11.50;99.90
7934;DHT22;4012;48.896;9.192;2024-03-23T01:55:51;11.50;99.90
7934;DHT22;4012;48.896;9.192;2024-03-23T01:58:17;11.40;99.90
7934;DHT22;4012;48.896;9.192;2024-03-23T02:00:42;11.40;99.90
7934;DHT22;4012;48.896;9.192;2024-03-23T02:03:27;11.50;99.90
7934;DHT22;4012;48.896;9.192;2024-03-23T02:05:54;11.40;99.90
7934;DHT22;4012;48.896;9.192;2024-03-23T02:08:21;11.50;99.90
7934;DHT22;4012;48.896;9.192;2024-03-23T02:10:48;11.60;99.90
7934;DHT22;4012;48.896;9.192;2024-03-23T02:13:15;11.70;99.90
7934;DHT22;4012;48.896;9.192;2024-03-23T02:15:41;11.70;99.90
7934;DHT22;4012;48.896;9.192;2024-03-23T02:18:08;11.90;99.90
7934;DHT22;4012;48.896;9.192;2024-03-23T02:20:34;12.10;99.90
7934;DHT22;4012;48.896;9.192;2024-03-23T02:23:00;12.00;99.90
7934;DHT22;4012;48.896;9.192;2024-03-23T02:25:26;12.20;99.90
7934;DHT22;4012;48.896;9.192;2024-03-23T02:27:51;12.20;99.90
7934;DHT22;4012;48.896;9.192;2024-03-23T02:30:19;12.30;99.90
7934;DHT22;4012;48.896;9.192;2024-03-23T02:32:45;12.30;99.90
7934;DHT22;4012;48.896;9.192;2024-03-23T02:35:10;12.30;99.90
7934;DHT22;4012;48.896;9.192;2024-03-23T02:37:36;12.30;99.90
7934;DHT22;4012;48.896;9.192;2024-03-23T02:40:01;12.30;99.90
7934;DHT22;4012;48.896;9.192;2024-03-23T02:42:27;12.30;99.90
7934;DHT22;4012;48.896;9.192;2024-03-23T02:44:53;12.30;99.90
7934;DHT22;4012;48.896;9.192;2024-03-23T02:47:19;12.40;99.90
7934;DHT22;4012;48.896;9.192;2024-03-23T02:49:45;12.40;99.90
7934;DHT22;4012;48.896;9.192;2024-03-23T02:52:10;12.40;99.90
7934;DHT22;4012;48.896;9.192;2024-03-23T02:54:36;12.50;99.90
7934;DHT22;4012;48.896;9.192;2024-03-23T02:57:02;12.50;99.90
7934;DHT22;4012;48.896;9.192;2024-03-23T02:59:27;12.50;99.90
7934;DHT22;4012;48.896;9.192;2024-03-23T03:01:53;12.50;99.90
7934;DHT22;4012;48.896;9.192;2024-03-23T03:04:19;12.40;99.90
7934;DHT22;4012;48.896;9.192;2024-03-23T03:06:47;12.40;99.90
7934;DHT22;4012;48.896;9.192;2024-03-23T03:09:13;12.30;99.90
7934;DHT22;4012;48.896;9.192;2024-03-23T03:11:39;12.20;99.90
7934;DHT22;4012;48.896;9.192;2024-03-23T03:14:04;12.30;99.90
7934;DHT22;4012;48.896;9.192;2024-03-23T03:16:32;12.00;99.90
7934;DHT22;4012;48.896;9.192;2024-03-23T03:18:58;12.00;99.90
7934;DHT22;4012;48.896;9.192;2024-03-23T03:21:23;11.90;99.90
7934;DHT22;4012;48.896;9.192;2024-03-23T03:23:49;11.90;99.90
7934;DHT22;4012;48.896;9.192;2024-03-23T03:26:16;11.90;99.90
7934;DHT22;4012;48.896;9.192;2024-03-23T03:28:43;11.80;99.90
7934;DHT22;4012;48.896;9.192;2024-03-23T03:31:09;11.70;99.90
7934;DHT22;4012;48.896;9.192;2024-03-23T03:33:35;11.70;99.90
7934;DHT22;4012;48.896;9.192;2024-03-23T03:36:00;11.60;99.90
7934;DHT22;4012;48.896;9.192;2024-03-23T03:38:26;11.50;99.90
7934;DHT22;4012;48.896;9.192;2024-03-23T03:40:51;11.40;99.90
7934;DHT22;4012;48.896;9.192;2024-03-23T03:43:18;11.30;99.90
7934;DHT22;4012;48.896;9.192;2024-03-23T03:45:52;11.30;99.90
7934;DHT22;4012;48.896;9.192;2024-03-23T03:48:18;11.30;99.90
7934;DHT22;4012;48.896;9.192;2024-03-23T03:50:43;11.20;99.90
7934;DHT22;4012;48.896;9.192;2024-03-23T03:53:09;11.20;99.90
7934;DHT22;4012;48.896;9.192;2024-03-23T03:55:34;11.20;99.90
7934;DHT22;4012;48.896;9.192;2024-03-23T03:58:00;11.10;99.90
7934;DHT22;4012;48.896;9.192;2024-03-23T04:00:26;11.20;99.90
7934;DHT22;4012;48.896;9.192;2024-03-23T04:02:51;11.20;99.90
7934;DHT22;4012;48.896;9.192;2024-03-23T04:05:17;11.20;99.90
7934;DHT22;4012;48.896;9.192;2024-03-23T04:07:42;11.20;99.90
7934;DHT22;4012;48.896;9.192;2024-03-23T04:10:08;11.20;99.90
7934;DHT22;4012;48.896;9.192;2024-03-23T04:12:35;11.20;99.90
7934;DHT22;4012;48.896;9.192;2024-03-23T04:15:00;11.30;99.90
7934;DHT22;4012;48.896;9.192;2024-03-23T04:17:29;11.30;99.90
7934;DHT22;4012;48.896;9.192;2024-03-23T04:19:57;11.30;99.90
7934;DHT22;4012;48.896;9.192;2024-03-23T04:22:23;11.40;99.90
7934;DHT22;4012;48.896;9.192;2024-03-23T04:24:54;11.40;99.90
7934;DHT22;4012;48.896;9.192;2024-03-23T04:27:20;11.50;99.90
7934;DHT22;4012;48.896;9.192;2024-03-23T04:29:50;11.50;99.90
7934;DHT22;4012;48.896;9.192;2024-03-23T04:32:15;11.40;99.90
7934;DHT22;4012;48.896;9.192;2024-03-23T04:34:42;11.50;99.90
7934;DHT22;4012;48.896;9.192;2024-03-23T04:37:09;11.40;99.90
7934;DHT22;4012;48.896;9.192;2024-03-23T04:39:38;11.40;99.90
7934;DHT22;4012;48.896;9.192;2024-03-23T04:42:04;11.30;99.90
7934;DHT22;4012;48.896;9.192;2024-03-23T04:44:30;11.20;99.90
7934;DHT22;4012;48.896;9.192;2024-03-23T04:46:57;11.20;99.90
7934;DHT22;4012;48.896;9.192;2024-03-23T04:49:22;11.10;99.90
7934;DHT22;4012;48.896;9.192;2024-03-23T04:51:48;11.00;99.90
7934;DHT22;4012;48.896;9.192;2024-03-23T04:54:13;11.00;99.90
7934;DHT22;4012;48.896;9.192;2024-03-23T04:56:39;11.00;99.90
7934;DHT22;4012;48.896;9.192;2024-03-23T04:59:05;10.90;99.90
7934;DHT22;4012;48.896;9.192;2024-03-23T05:01:34;11.00;99.90
7934;DHT22;4012;48.896;9.192;2024-03-23T05:03:59;11.00;99.90
7934;DHT22;4012;48.896;9.192;2024-03-23T05:06:25;11.00;99.90
7934;DHT22;4012;48.896;9.192;2024-03-23T05:08:51;11.00;99.90
7934;DHT22;4012;48.896;9.192;2024-03-23T05:11:17;11.00;99.90
7934;DHT22;4012;48.896;9.192;2024-03-23T05:13:43;11.10;99.90
7934;DHT22;4012;48.896;9.192;2024-03-23T05:16:09;11.10;99.90
7934;DHT22;4012;48.896;9.192;2024-03-23T05:18:35;11.10;99.90
7934;DHT22;4012;48.896;9.192;2024-03-23T05:21:01;11.10;99.90
7934;DHT22;4012;48.896;9.192;2024-03-23T05:23:28;11.10;99.90
7934;DHT22;4012;48.896;9.192;2024-03-23T05:25:54;11.10;99.90
7934;DHT22;4012;48.896;9.192;2024-03-23T05:28:23;11.10;99.90
7934;DHT22;4012;48.896;9.192;2024-03-23T05:30:54;11.10;99.90
7934;DHT22;4012;48.896;9.192;2024-03-23T05:33:20;11.00;99.90
7934;DHT22;4012;48.896;9.192;2024-03-23T05:35:47;10.90;99.90
7934;DHT22;4012;48.896;9.192;2024-03-23T05:38:19;10.80;99.90
7934;DHT22;4012;48.896;9.192;2024-03-23T05:40:56;10.80;99.90
7934;DHT22;4012;48.896;9.192;2024-03-23T05:43:22;10.80;99.90
7934;DHT22;4012;48.896;9.192;2024-03-23T05:45:58;10.70;99.90
7934;DHT22;4012;48.896;9.192;2024-03-23T05:48:28;10.60;99.90
7934;DHT22;4012;48.896;9.192;2024-03-23T05:50:55;10.60;99.90
7934;DHT22;4012;48.896;9.192;2024-03-23T05:53:21;10.50;99.90
7934;DHT22;4012;48.896;9.192;2024-03-23T05:55:47;10.50;99.90
7934;DHT22;4012;48.896;9.192;2024-03-23T05:58:14;10.50;99.90
7934;DHT22;4012;48.896;9.192;2024-03-23T06:00:40;10.40;99.90
7934;DHT22;4012;48.896;9.192;2024-03-23T06:03:06;10.40;99.90
7934;DHT22;4012;48.896;9.192;2024-03-23T06:05:31;10.40;99.90
7934;DHT22;4012;48.896;9.192;2024-03-23T06:07:57;10.40;99.90
7934;DHT22;4012;48.896;9.192;2024-03-23T06:10:23;10.40;99.90
7934;DHT22;4012;48.896;9.192;2024-03-23T06:12:48;10.40;99.90
7934;DHT22;4012;48.896;9.192;2024-03-23T06:15:16;10.40;99.90
7934;DHT22;4012;48.896;9.192;2024-03-23T06:17:42;10.40;99.90
7934;DHT22;4012;48.896;9.192;2024-03-23T06:20:08;10.40;99.90
7934;DHT22;4012;48.896;9.192;2024-03-23T06:22:34;10.30;99.90
7934;DHT22;4012;48.896;9.192;2024-03-23T06:24:59;10.30;99.90
7934;DHT22;4012;48.896;9.192;2024-03-23T06:27:25;10.40;99.90
7934;DHT22;4012;48.896;9.192;2024-03-23T06:29:51;10.20;99.90
7934;DHT22;4012;48.896;9.192;2024-03-23T06:32:17;10.20;99.90
7934;DHT22;4012;48.896;9.192;2024-03-23T06:34:42;10.20;99.90
7934;DHT22;4012;48.896;9.192;2024-03-23T06:37:08;10.20;99.90
7934;DHT22;4012;48.896;9.192;2024-03-23T06:39:35;10.20;99.90
7934;DHT22;4012;48.896;9.192;2024-03-23T06:42:02;10.20;99.90
7934;DHT22;4012;48.896;9.192;2024-03-23T06:44:27;10.10;99.90
7934;DHT22;4012;48.896;9.192;2024-03-23T06:46:53;10.00;99.90
7934;DHT22;4012;48.896;9.192;2024-03-23T06:49:18;9.80;99.90
7934;DHT22;4012;48.896;9.192;2024-03-23T06:51:45;9.80;99.90
7934;DHT22;4012;48.896;9.192;2024-03-23T06:54:11;9.80;99.90
7934;DHT22;4012;48.896;9.192;2024-03-23T06:56:36;9.70;99.90
7934;DHT22;4012;48.896;9.192;2024-03-23T06:59:02;9.80;99.90
7934;DHT22;4012;48.896;9.192;2024-03-23T07:01:27;9.70;99.90
7934;DHT22;4012;48.896;9.192;2024-03-23T07:03:54;9.70;99.90
7934;DHT22;4012;48.896;9.192;2024-03-23T07:06:20;9.80;99.90
7934;DHT22;4012;48.896;9.192;2024-03-23T07:08:46;9.70;99.90
7934;DHT22;4012;48.896;9.192;2024-03-23T07:11:11;9.70;99.90
7934;DHT22;4012;48.896;9.192;2024-03-23T07:13:37;10.00;99.90
7934;DHT22;4012;48.896;9.192;2024-03-23T07:16:02;10.10;99.90
7934;DHT22;4012;48.896;9.192;2024-03-23T07:18:28;10.30;99.90
7934;DHT22;4012;48.896;9.192;2024-03-23T07:20:57;10.40;99.90
7934;DHT22;4012;48.896;9.192;2024-03-23T07:23:24;10.30;99.90
7934;DHT22;4012;48.896;9.192;2024-03-23T07:26:05;10.60;99.90
7934;DHT22;4012;48.896;9.192;2024-03-23T07:28:34;10.60;99.90
7934;DHT22;4012;48.896;9.192;2024-03-23T07:31:05;10.50;99.90
7934;DHT22;4012;48.896;9.192;2024-03-23T07:33:31;10.10;99.90
7934;DHT22;4012;48.896;9.192;2024-03-23T07:35:57;10.10;99.90
7934;DHT22;4012;48.896;9.192;2024-03-23T07:38:26;9.90;99.90
7934;DHT22;4012;48.896;9.192;2024-03-23T07:40:51;9.80;99.90
7934;DHT22;4012;48.896;9.192;2024-03-23T07:43:21;9.80;99.90
7934;DHT22;4012;48.896;9.192;2024-03-23T07:45:53;9.70;99.90
7934;DHT22;4012;48.896;9.192;2024-03-23T07:48:18;9.70;99.90
7934;DHT22;4012;48.896;9.192;2024-03-23T07:50:44;9.60;99.90
7934;DHT22;4012;48.896;9.192;2024-03-23T07:53:10;9.70;99.90
7934;DHT22;4012;48.896;9.192;2024-03-23T07:55:35;9.70;99.90
7934;DHT22;4012;48.896;9.192;2024-03-23T07:58:01;9.60;99.90
7934;DHT22;4012;48.896;9.192;2024-03-23T08:00:26;9.60;99.90
7934;DHT22;4012;48.896;9.192;2024-03-23T08:02:52;9.50;99.90
7934;DHT22;4012;48.896;9.192;2024-03-23T08:05:18;9.40;99.90
7934;DHT22;4012;48.896;9.192;2024-03-23T08:07:43;9.30;99.90
7934;DHT22;4012;48.896;9.192;2024-03-23T08:10:09;9.40;99.90
7934;DHT22;4012;48.896;9.192;2024-03-23T08:12:34;10.00;99.90
7934;DHT22;4012;48.896;9.192;2024-03-23T08:15:00;10.20;99.90
7934;DHT22;4012;48.896;9.192;2024-03-23T08:17:25;10.30;99.90
7934;DHT22;4012;48.896;9.192;2024-03-23T08:19:51;10.10;99.90
7934;DHT22;4012;48.896;9.192;2024-03-23T08:24:44;9.30;99.90
7934;DHT22;4012;48.896;9.192;2024-03-23T08:27:10;9.30;99.90
7934;DHT22;4012;48.896;9.192;2024-03-23T08:29:35;9.30;99.90
7934;DHT22;4012;48.896;9.192;2024-03-23T08:32:01;10.70;99.90
7934;DHT22;4012;48.896;9.192;2024-03-23T08:34:27;12.20;99.90
7934;DHT22;4012;48.896;9.192;2024-03-23T08:36:52;13.20;99.90
7934;DHT22;4012;48.896;9.192;2024-03-23T08:39:18;13.80;99.90
7934;DHT22;4012;48.896;9.192;2024-03-23T08:41:43;13.00;99.90
7934;DHT22;4012;48.896;9.192;2024-03-23T08:44:11;11.40;99.90
7934;DHT22;4012;48.896;9.192;2024-03-23T08:46:37;10.80;99.90
7934;DHT22;4012;48.896;9.192;2024-03-23T08:49:02;10.80;99.90
7934;DHT22;4012;48.896;9.192;2024-03-23T08:51:28;11.20;99.90
7934;DHT22;4012;48.896;9.192;2024-03-23T08:53:53;12.60;99.90
7934;DHT22;4012;48.896;9.192;2024-03-23T08:56:19;12.50;99.90
7934;DHT22;4012;48.896;9.192;2024-03-23T08:58:45;12.10;99.90
7934;DHT22;4012;48.896;9.192;2024-03-23T09:01:12;11.30;99.90
7934;DHT22;4012;48.896;9.192;2024-03-23T09:03:40;11.10;99.90
7934;DHT22;4012;48.896;9.192;2024-03-23T09:06:10;10.40;99.90
7934;DHT22;4012;48.896;9.192;2024-03-23T09:08:37;10.60;99.90
7934;DHT22;4012;48.896;9.192;2024-03-23T09:11:06;12.10;99.90
7934;DHT22;4012;48.896;9.192;2024-03-23T09:13:33;12.70;99.90
7934;DHT22;4012;48.896;9.192;2024-03-23T09:15:59;12.30;99.90
7934;DHT22;4012;48.896;9.192;2024-03-23T09:18:25;11.30;99.90
7934;DHT22;4012;48.896;9.192;2024-03-23T09:20:51;10.60;99.90
7934;DHT22;4012;48.896;9.192;2024-03-23T09:23:16;10.90;99.90
7934;DHT22;4012;48.896;9.192;2024-03-23T09:25:42;11.00;99.90
7934;DHT22;4012;48.896;9.192;2024-03-23T09:28:09;11.00;99.90
7934;DHT22;4012;48.896;9.192;2024-03-23T09:30:35;10.60;99.90
7934;DHT22;4012;48.896;9.192;2024-03-23T09:33:02;10.50;99.90
7934;DHT22;4012;48.896;9.192;2024-03-23T09:35:28;11.10;99.90
7934;DHT22;4012;48.896;9.192;2024-03-23T09:37:53;11.20;99.90
7934;DHT22;4012;48.896;9.192;2024-03-23T09:40:19;11.00;99.90
7934;DHT22;4012;48.896;9.192;2024-03-23T09:42:50;10.90;99.90
7934;DHT22;4012;48.896;9.192;2024-03-23T09:45:26;11.90;99.90
7934;DHT22;4012;48.896;9.192;2024-03-23T09:47:52;13.20;99.90
7934;DHT22;4012;48.896;9.192;2024-03-23T09:50:18;13.60;99.90
7934;DHT22;4012;48.896;9.192;2024-03-23T09:52:46;14.30;99.90
7934;DHT22;4012;48.896;9.192;2024-03-23T09:55:12;15.00;99.90
7934;DHT22;4012;48.896;9.192;2024-03-23T09:57:38;14.80;99.90
7934;DHT22;4012;48.896;9.192;2024-03-23T10:00:04;15.40;99.90
7934;DHT22;4012;48.896;9.192;2024-03-23T10:02:30;16.80;99.90
7934;DHT22;4012;48.896;9.192;2024-03-23T10:04:56;17.10;99.90
7934;DHT22;4012;48.896;9.192;2024-03-23T10:07:23;15.40;99.90
7934;DHT22;4012;48.896;9.192;2024-03-23T10:09:49;14.10;99.90
7934;DHT22;4012;48.896;9.192;2024-03-23T10:12:18;13.10;99.90
7934;DHT22;4012;48.896;9.192;2024-03-23T10:14:45;12.30;99.90
7934;DHT22;4012;48.896;9.192;2024-03-23T10:17:21;11.60;99.90
7934;DHT22;4012;48.896;9.192;2024-03-23T10:19:50;11.40;99.90
7934;DHT22;4012;48.896;9.192;2024-03-23T10:22:21;11.00;99.90
7934;DHT22;4012;48.896;9.192;2024-03-23T10:24:47;11.20;99.90
7934;DHT22;4012;48.896;9.192;2024-03-23T10:27:18;10.80;99.90
7934;DHT22;4012;48.896;9.192;2024-03-23T10:29:47;10.60;99.90
7934;DHT22;4012;48.896;9.192;2024-03-23T10:32:14;10.60;99.90
7934;DHT22;4012;48.896;9.192;2024-03-23T10:34:40;10.30;99.90
7934;DHT22;4012;48.896;9.192;2024-03-23T10:37:07;10.40;99.90
7934;DHT22;4012;48.896;9.192;2024-03-23T10:39:34;10.50;99.90
7934;DHT22;4012;48.896;9.192;2024-03-23T10:42:03;10.90;99.90
7934;DHT22;4012;48.896;9.192;2024-03-23T10:44:30;11.10;99.90
7934;DHT22;4012;48.896;9.192;2024-03-23T10:46:57;10.90;99.90
7934;DHT22;4012;48.896;9.192;2024-03-23T10:49:32;10.90;99.90
7934;DHT22;4012;48.896;9.192;2024-03-23T10:52:03;10.60;99.90
7934;DHT22;4012;48.896;9.192;2024-03-23T10:54:30;10.00;99.90
7934;DHT22;4012;48.896;9.192;2024-03-23T10:57:15;9.70;99.90
7934;DHT22;4012;48.896;9.192;2024-03-23T10:59:42;9.40;99.90
7934;DHT22;4012;48.896;9.192;2024-03-23T11:02:19;9.20;99.90
7934;DHT22;4012;48.896;9.192;2024-03-23T11:04:46;8.90;99.90
7934;DHT22;4012;48.896;9.192;2024-03-23T11:09:53;8.10;99.90
7934;DHT22;4012;48.896;9.192;2024-03-23T11:17:20;8.60;99.90
7934;DHT22;4012;48.896;9.192;2024-03-23T11:19:57;8.90;99.90
7934;DHT22;4012;48.896;9.192;2024-03-23T11:27:40;9.80;99.90
7934;DHT22;4012;48.896;9.192;2024-03-23T11:30:13;10.30;99.90
7934;DHT22;4012;48.896;9.192;2024-03-23T11:32:39;10.70;99.90
7934;DHT22;4012;48.896;9.192;2024-03-23T11:35:05;11.00;99.90
7934;DHT22;4012;48.896;9.192;2024-03-23T11:37:31;11.20;99.90
7934;DHT22;4012;48.896;9.192;2024-03-23T11:39:57;11.10;99.90
7934;DHT22;4012;48.896;9.192;2024-03-23T11:42:22;10.90;99.90
7934;DHT22;4012;48.896;9.192;2024-03-23T11:44:48;10.90;99.90
7934;DHT22;4012;48.896;9.192;2024-03-23T11:47:13;10.50;99.90
7934;DHT22;4012;48.896;9.192;2024-03-23T11:49:39;10.90;99.90
7934;DHT22;4012;48.896;9.192;2024-03-23T11:52:07;10.90;99.90
7934;DHT22;4012;48.896;9.192;2024-03-23T11:54:33;10.80;99.90
7934;DHT22;4012;48.896;9.192;2024-03-23T11:57:01;10.80;99.90
7934;DHT22;4012;48.896;9.192;2024-03-23T11:59:39;10.90;99.90
7934;DHT22;4012;48.896;9.192;2024-03-23T12:02:12;11.00;99.90
7934;DHT22;4012;48.896;9.192;2024-03-23T12:04:41;10.90;99.90
7934;DHT22;4012;48.896;9.192;2024-03-23T12:09:36;11.10;99.90
7934;DHT22;4012;48.896;9.192;2024-03-23T12:12:16;10.80;99.90
7934;DHT22;4012;48.896;9.192;2024-03-23T12:14:45;10.50;99.90
7934;DHT22;4012;48.896;9.192;2024-03-23T12:17:26;10.30;99.90
7934;DHT22;4012;48.896;9.192;2024-03-23T12:19:51;10.40;99.90
7934;DHT22;4012;48.896;9.192;2024-03-23T12:22:21;10.50;99.90
7934;DHT22;4012;48.896;9.192;2024-03-23T12:24:47;10.60;99.90
7934;DHT22;4012;48.896;9.192;2024-03-23T12:27:12;10.90;99.90
7934;DHT22;4012;48.896;9.192;2024-03-23T12:29:38;11.00;99.90
7934;DHT22;4012;48.896;9.192;2024-03-23T12:32:05;11.50;99.90
7934;DHT22;4012;48.896;9.192;2024-03-23T12:34:30;11.40;99.90
7934;DHT22;4012;48.896;9.192;2024-03-23T12:36:56;11.40;99.90
7934;DHT22;4012;48.896;9.192;2024-03-23T12:39:22;11.00;99.90
7934;DHT22;4012;48.896;9.192;2024-03-23T12:41:48;10.70;99.90
7934;DHT22;4012;48.896;9.192;2024-03-23T12:44:14;10.90;99.90
7934;DHT22;4012;48.896;9.192;2024-03-23T12:46:41;11.00;99.90
7934;DHT22;4012;48.896;9.192;2024-03-23T12:49:07;11.00;99.90
7934;DHT22;4012;48.896;9.192;2024-03-23T12:51:33;11.30;99.90
7934;DHT22;4012;48.896;9.192;2024-03-23T12:53:58;11.40;99.90
7934;DHT22;4012;48.896;9.192;2024-03-23T12:56:24;11.50;99.90
7934;DHT22;4012;48.896;9.192;2024-03-23T12:58:50;11.90;99.90
7934;DHT22;4012;48.896;9.192;2024-03-23T13:01:17;12.60;99.90
7934;DHT22;4012;48.896;9.192;2024-03-23T13:03:43;12.50;99.90
7934;DHT22;4012;48.896;9.192;2024-03-23T13:06:10;12.30;99.90
7934;DHT22;4012;48.896;9.192;2024-03-23T13:08:36;12.30;99.90
7934;DHT22;4012;48.896;9.192;2024-03-23T13:11:01;12.10;99.90
7934;DHT22;4012;48.896;9.192;2024-03-23T13:13:27;12.00;99.90
7934;DHT22;4012;48.896;9.192;2024-03-23T13:15:52;11.80;99.90
7934;DHT22;4012;48.896;9.192;2024-03-23T13:18:18;12.10;99.90
7934;DHT22;4012;48.896;9.192;2024-03-23T13:20:44;11.90;99.90
7934;DHT22;4012;48.896;9.192;2024-03-23T13:23:09;11.50;99.90
7934;DHT22;4012;48.896;9.192;2024-03-23T13:25:35;11.60;99.90
7934;DHT22;4012;48.896;9.192;2024-03-23T13:28:02;11.90;99.90
7934;DHT22;4012;48.896;9.192;2024-03-23T13:30:28;12.20;99.90
7934;DHT22;4012;48.896;9.192;2024-03-23T13:32:53;12.70;99.90
7934;DHT22;4012;48.896;9.192;2024-03-23T13:35:19;12.90;99.90
7934;DHT22;4012;48.896;9.192;2024-03-23T13:37:45;12.80;99.90
7934;DHT22;4012;48.896;9.192;2024-03-23T13:40:12;12.70;99.90
7934;DHT22;4012;48.896;9.192;2024-03-23T13:42:38;12.80;99.90
7934;DHT22;4012;48.896;9.192;2024-03-23T13:45:04;12.20;99.90
7934;DHT22;4012;48.896;9.192;2024-03-23T13:47:29;12.50;99.90
7934;DHT22;4012;48.896;9.192;2024-03-23T13:49:55;12.40;99.90
7934;DHT22;4012;48.896;9.192;2024-03-23T13:52:21;12.20;99.90
7934;DHT22;4012;48.896;9.192;2024-03-23T13:54:50;11.70;99.90
7934;DHT22;4012;48.896;9.192;2024-03-23T13:57:15;10.70;99.90
7934;DHT22;4012;48.896;9.192;2024-03-23T13:59:42;9.50;99.90
7934;DHT22;4012;48.896;9.192;2024-03-23T14:02:08;9.00;99.90
7934;DHT22;4012;48.896;9.192;2024-03-23T14:04:33;8.40;99.90
7934;DHT22;4012;48.896;9.192;2024-03-23T14:06:59;8.10;99.90
7934;DHT22;4012;48.896;9.192;2024-03-23T14:09:24;8.10;99.90
7934;DHT22;4012;48.896;9.192;2024-03-23T14:11:51;8.00;99.90
7934;DHT22;4012;48.896;9.192;2024-03-23T14:14:16;7.80;99.90
7934;DHT22;4012;48.896;9.192;2024-03-23T14:16:45;7.70;99.90
7934;DHT22;4012;48.896;9.192;2024-03-23T14:19:10;7.80;99.90
7934;DHT22;4012;48.896;9.192;2024-03-23T14:21:37;7.90;99.90
7934;DHT22;4012;48.896;9.192;2024-03-23T14:24:04;8.00;99.90
7934;DHT22;4012;48.896;9.192;2024-03-23T14:26:29;8.20;99.90
7934;DHT22;4012;48.896;9.192;2024-03-23T14:28:55;8.30;99.90
7934;DHT22;4012;48.896;9.192;2024-03-23T14:31:20;8.10;99.90
7934;DHT22;4012;48.896;9.192;2024-03-23T14:33:46;8.10;99.90
7934;DHT22;4012;48.896;9.192;2024-03-23T14:36:15;8.30;99.90
7934;DHT22;4012;48.896;9.192;2024-03-23T14:38:42;8.70;99.90
7934;DHT22;4012;48.896;9.192;2024-03-23T14:41:07;9.10;99.90
7934;DHT22;4012;48.896;9.192;2024-03-23T14:43:33;9.30;99.90
7934;DHT22;4012;48.896;9.192;2024-03-23T14:48:35;8.80;99.90
7934;DHT22;4012;48.896;9.192;2024-03-23T14:51:01;8.90;99.90
7934;DHT22;4012;48.896;9.192;2024-03-23T14:53:30;9.00;99.90
7934;DHT22;4012;48.896;9.192;2024-03-23T14:55:56;9.10;99.90
7934;DHT22;4012;48.896;9.192;2024-03-23T14:58:22;9.20;99.90
7934;DHT22;4012;48.896;9.192;2024-03-23T15:00:49;9.30;99.90
7934;DHT22;4012;48.896;9.192;2024-03-23T15:03:14;9.20;99.90
7934;DHT22;4012;48.896;9.192;2024-03-23T15:05:40;9.10;99.90
7934;DHT22;4012;48.896;9.192;2024-03-23T15:08:06;9.10;99.90
7934;DHT22;4012;48.896;9.192;2024-03-23T15:10:33;9.10;99.90
7934;DHT22;4012;48.896;9.192;2024-03-23T15:12:59;9.40;99.90
7934;DHT22;4012;48.896;9.192;2024-03-23T15:15:24;9.60;99.90
7934;DHT22;4012;48.896;9.192;2024-03-23T15:17:50;9.80;99.90
7934;DHT22;4012;48.896;9.192;2024-03-23T15:20:15;10.00;99.90
7934;DHT22;4012;48.896;9.192;2024-03-23T15:22:41;10.20;99.90
7934;DHT22;4012;48.896;9.192;2024-03-23T15:25:07;9.90;99.90
7934;DHT22;4012;48.896;9.192;2024-03-23T15:27:33;9.90;99.90
7934;DHT22;4012;48.896;9.192;2024-03-23T15:29:59;9.80;99.90
7934;DHT22;4012;48.896;9.192;2024-03-23T15:32:25;9.60;99.90
7934;DHT22;4012;48.896;9.192;2024-03-23T15:34:50;9.30;99.90
7934;DHT22;4012;48.896;9.192;2024-03-23T15:37:17;9.10;99.90
7934;DHT22;4012;48.896;9.192;2024-03-23T15:39:43;9.10;99.90
7934;DHT22;4012;48.896;9.192;2024-03-23T15:42:09;9.10;99.90
7934;DHT22;4012;48.896;9.192;2024-03-23T15:44:35;9.00;99.90
7934;DHT22;4012;48.896;9.192;2024-03-23T15:47:01;8.90;99.90
7934;DHT22;4012;48.896;9.192;2024-03-23T15:49:26;9.10;99.90
7934;DHT22;4012;48.896;9.192;2024-03-23T15:51:52;8.90;99.90
7934;DHT22;4012;48.896;9.192;2024-03-23T15:54:19;8.80;99.90
7934;DHT22;4012;48.896;9.192;2024-03-23T15:56:44;8.70;99.90
7934;DHT22;4012;48.896;9.192;2024-03-23T15:59:10;8.60;99.90
7934;DHT22;4012;48.896;9.192;2024-03-23T16:01:35;8.80;99.90
7934;DHT22;4012;48.896;9.192;2024-03-23T16:04:03;9.10;99.90
7934;DHT22;4012;48.896;9.192;2024-03-23T16:06:28;9.10;99.90
7934;DHT22;4012;48.896;9.192;2024-03-23T16:08:54;8.90;99.90
7934;DHT22;4012;48.896;9.192;2024-03-23T16:11:20;8.90;99.90
7934;DHT22;4012;48.896;9.192;2024-03-23T16:13:45;8.90;99.90
7934;DHT22;4012;48.896;9.192;2024-03-23T16:16:12;9.00;99.90
7934;DHT22;4012;48.896;9.192;2024-03-23T16:18:39;9.00;99.90
7934;DHT22;4012;48.896;9.192;2024-03-23T16:21:06;9.00;99.90
7934;DHT22;4012;48.896;9.192;2024-03-23T16:23:32;9.00;99.90
7934;DHT22;4012;48.896;9.192;2024-03-23T16:25:58;8.90;99.90
7934;DHT22;4012;48.896;9.192;2024-03-23T16:28:31;8.80;99.90
7934;DHT22;4012;48.896;9.192;2024-03-23T16:30:59;8.80;99.90
7934;DHT22;4012;48.896;9.192;2024-03-23T16:33:25;8.70;99.90
7934;DHT22;4012;48.896;9.192;2024-03-23T16:35:59;8.70;99.90
7934;DHT22;4012;48.896;9.192;2024-03-23T16:38:29;8.70;99.90
7934;DHT22;4012;48.896;9.192;2024-03-23T16:40:59;8.80;99.90
7934;DHT22;4012;48.896;9.192;2024-03-23T16:43:26;8.80;99.90
7934;DHT22;4012;48.896;9.192;2024-03-23T16:46:08;8.90;99.90
7934;DHT22;4012;48.896;9.192;2024-03-23T16:48:39;8.80;99.90
7934;DHT22;4012;48.896;9.192;2024-03-23T16:51:08;8.70;99.90
7934;DHT22;4012;48.896;9.192;2024-03-23T16:53:35;8.50;99.90
7934;DHT22;4012;48.896;9.192;2024-03-23T16:56:05;8.40;99.90
7934;DHT22;4012;48.896;9.192;2024-03-23T16:58:35;8.10;99.90
7934;DHT22;4012;48.896;9.192;2024-03-23T17:01:11;7.90;99.90
7934;DHT22;4012;48.896;9.192;2024-03-23T17:03:55;8.00;99.90
7934;DHT22;4012;48.896;9.192;2024-03-23T17:06:20;8.00;99.90
7934;DHT22;4012;48.896;9.192;2024-03-23T17:08:48;8.00;99.90
7934;DHT22;4012;48.896;9.192;2024-03-23T17:11:14;7.90;99.90
7934;DHT22;4012;48.896;9.192;2024-03-23T17:13:40;7.90;99.90
7934;DHT22;4012;48.896;9.192;2024-03-23T17:16:05;8.00;99.90